Hauptseite
METAR-TAF:

METAR-TAF

Flughäfen :

Fliegerhorst Wunstorf

Wunstorf, Deutschland

Breite: 52-27N, Länge: 009-26E, Höhe: 57 m

Beobachtung

Neuester Wetterbericht von vor 1 Stunde und 16 Minuten, um 12:20 UTC
Wind 4 kt aus Süd
Temperatur 31°C
Luftfeuchtigkeit 24%
Luftdruck 1020 hPa
Sichtweite 10 km oder mehr
Leicht bewölkt in der Höhe von 30000 ft

METAR: ETNW 061220Z 19004KT 9999 FEW300 31/08 Q1020 BLU+BLU+

Zeit: 15:36 (13:36 UTC)

Prognose

Neuester Wetterbericht von vor 3 Stunden und 36 Minuten, um 10:00 UTC
Gültige Prognose vom 06 um 11 UTC bis 07 um 11 UTC
Wind 5 kt aus Süd/Südwest
Sichtweite 10 km oder mehr
Aufgelockert bewölkt in der Höhe von 30000 ft
Übergehend zu
vom 06 um 18 UTC bis 06 um 20 UTC
Wind 5 kt aus Ost
Sichtweite 10 km oder mehr
Leicht bewölkt in der Höhe von 21000 ft

TAF: ETNW 061000Z 0611/0711 21005KT 9999 NSW SCT300 BECMG 0618/0620 10005KT 9999 NSW FEW210 BY ETGL

Wetterbeobachtungen und Prognosen von mehr als 4000 Flughäfen (METAR und TAF Bericht).

Die verfügbaren Stationen werden durch gelbe und rote Markierungen auf der Karte dargestellt.

Führen Sie die Maus auf sie, um den Namen der Station zu sehen.

Darauf klicken, um die Beobachtung von Wetterbeobachtungen und Prognosen zu sehen.

Um die Karte zu ändern : klicken Sie auf den grünen Tasten mit einem schwarzen Kreuz Zum Vergrößern, auf den grünen Button mit einem Gedankenstrich zu verkleinern, oder auf die grünen Pfeile für benachbarte Karten.


METAR-TAF: